createdAt,value
2023-01-13T00:00:21.856Z,4.65
2023-01-13T00:02:49.237Z,7.78
2023-01-13T00:05:16.624Z,6.15
2023-01-13T00:07:44.096Z,6.60
2023-01-13T00:10:11.776Z,4.68
2023-01-13T00:12:40.656Z,4.07
2023-01-13T00:15:09.246Z,3.42
2023-01-13T00:17:36.743Z,3.60
2023-01-13T00:20:04.604Z,7.18
2023-01-13T00:22:35.896Z,3.30
2023-01-13T00:25:04.513Z,3.05
2023-01-13T00:27:31.991Z,3.33
2023-01-13T00:29:59.539Z,3.70
2023-01-13T00:32:27.449Z,1.63
2023-01-13T00:34:55.045Z,4.30
2023-01-13T00:37:23.476Z,5.20
2023-01-13T00:39:52.129Z,3.75
2023-01-13T00:42:38.380Z,4.88
2023-01-13T00:45:06.245Z,3.28
2023-01-13T00:47:33.561Z,4.53
2023-01-13T00:50:00.974Z,3.90
2023-01-13T00:52:28.310Z,3.97
2023-01-13T00:54:55.807Z,3.90
2023-01-13T00:57:23.130Z,5.07
2023-01-13T00:59:50.410Z,5.03
2023-01-13T01:02:17.760Z,6.63
2023-01-13T01:04:45.145Z,2.85
2023-01-13T01:07:12.380Z,6.97
2023-01-13T01:09:39.865Z,7.30
2023-01-13T01:12:07.286Z,3.70
2023-01-13T01:14:34.572Z,6.30
2023-01-13T01:17:01.954Z,6.00
2023-01-13T01:19:29.335Z,3.30
2023-01-13T01:21:57.032Z,3.45
2023-01-13T01:24:24.306Z,3.72
2023-01-13T01:26:51.824Z,3.65
2023-01-13T01:29:19.145Z,5.22
2023-01-13T01:31:46.509Z,6.80
2023-01-13T01:34:13.932Z,5.10
2023-01-13T01:36:41.226Z,6.07
2023-01-13T01:39:09.762Z,5.45
2023-01-13T01:41:37.710Z,6.57
2023-01-13T01:44:42.046Z,6.55
2023-01-13T01:47:11.668Z,7.07
2023-01-13T01:49:39.658Z,7.88
2023-01-13T01:52:12.874Z,10.80
2023-01-13T01:54:45.563Z,6.70
2023-01-13T01:57:17.743Z,7.38
2023-01-13T01:59:45.298Z,10.32
2023-01-13T02:02:12.792Z,10.25
2023-01-13T02:04:42.744Z,11.27
2023-01-13T02:07:10.157Z,9.07
2023-01-13T02:09:37.522Z,7.72
2023-01-13T02:12:23.392Z,10.57
2023-01-13T02:14:50.646Z,9.10
2023-01-13T02:17:20.939Z,9.55
2023-01-13T02:20:19.617Z,12.25
2023-01-13T02:23:43.663Z,9.98
2023-01-13T02:26:21.466Z,10.02
2023-01-13T02:29:32.634Z,11.88
2023-01-13T02:32:06.644Z,9.23
2023-01-13T02:34:40.765Z,15.80
2023-01-13T02:37:21.198Z,12.05
2023-01-13T02:40:01.012Z,6.50
2023-01-13T02:42:51.962Z,9.90
2023-01-13T02:45:23.816Z,12.25
2023-01-13T02:47:55.820Z,10.30
2023-01-13T02:50:27.810Z,12.10
2023-01-13T02:52:58.843Z,10.30
2023-01-13T02:55:32.945Z,10.13
2023-01-13T02:58:01.421Z,8.55
2023-01-13T03:00:29.418Z,13.55
2023-01-13T03:02:57.168Z,12.20
2023-01-13T03:05:25.254Z,12.98
2023-01-13T03:08:04.699Z,13.43
2023-01-13T03:10:36.439Z,10.30
2023-01-13T03:13:15.130Z,11.52
2023-01-13T03:15:42.755Z,9.90
2023-01-13T03:18:40.897Z,12.90
2023-01-13T03:21:26.177Z,11.68
2023-01-13T03:23:56.429Z,11.90
2023-01-13T03:26:33.607Z,12.27
2023-01-13T03:29:09.445Z,11.95
2023-01-13T03:31:41.125Z,11.35
2023-01-13T03:34:13.956Z,13.65
2023-01-13T03:36:41.940Z,12.48
2023-01-13T03:39:14.752Z,15.75
2023-01-13T03:41:46.086Z,9.98
2023-01-13T03:44:23.920Z,12.68
2023-01-13T03:47:07.298Z,12.05
2023-01-13T03:49:54.695Z,10.02
2023-01-13T03:52:38.060Z,10.88
2023-01-13T03:55:09.961Z,13.82
2023-01-13T03:57:46.726Z,16.55
2023-01-13T04:00:14.700Z,8.65
2023-01-13T04:02:52.833Z,10.20
2023-01-13T04:05:20.523Z,16.10
2023-01-13T04:08:07.108Z,8.40
2023-01-13T04:10:45.641Z,8.35
2023-01-13T04:13:14.895Z,15.23
2023-01-13T04:15:46.237Z,9.63
2023-01-13T04:18:17.757Z,11.65
2023-01-13T04:20:46.930Z,10.27
2023-01-13T04:23:15.086Z,14.77
2023-01-13T04:25:43.290Z,11.18
2023-01-13T04:28:11.920Z,10.35
2023-01-13T04:30:39.846Z,9.07
2023-01-13T04:33:07.223Z,10.57
2023-01-13T04:35:35.695Z,8.55
2023-01-13T04:38:05.231Z,7.88
2023-01-13T04:40:32.989Z,9.48
2023-01-13T04:43:00.247Z,13.10
2023-01-13T04:45:27.539Z,13.57
2023-01-13T04:47:54.847Z,9.27
2023-01-13T04:50:22.858Z,12.00
2023-01-13T04:52:50.747Z,9.50
2023-01-13T04:55:18.990Z,9.10
2023-01-13T04:57:46.471Z,6.85
2023-01-13T05:00:16.041Z,10.50
2023-01-13T05:02:43.393Z,7.25
2023-01-13T05:05:11.039Z,9.88
2023-01-13T05:07:38.655Z,12.40
2023-01-13T05:10:06.294Z,14.68
2023-01-13T05:12:52.237Z,13.13
2023-01-13T05:15:38.226Z,11.60
2023-01-13T05:18:05.663Z,12.13
2023-01-13T05:20:32.935Z,12.40
2023-01-13T05:23:18.663Z,16.02
2023-01-13T05:25:47.546Z,13.77
2023-01-13T05:28:14.972Z,15.25
2023-01-13T05:30:44.555Z,13.52
2023-01-13T05:33:14.021Z,12.38
2023-01-13T05:35:42.669Z,14.32
2023-01-13T05:38:10.816Z,13.32
2023-01-13T05:40:59.052Z,19.65
2023-01-13T05:43:27.564Z,15.20
2023-01-13T05:46:03.713Z,11.77
2023-01-13T05:48:36.372Z,12.02
2023-01-13T05:51:05.564Z,13.02
2023-01-13T05:53:33.087Z,13.73
2023-01-13T05:56:00.711Z,11.75
2023-01-13T05:58:28.279Z,17.13
2023-01-13T06:01:04.272Z,16.10
2023-01-13T06:03:32.013Z,12.88
2023-01-13T06:05:59.497Z,12.82
2023-01-13T06:08:27.016Z,17.65
2023-01-13T06:10:54.237Z,12.77
2023-01-13T06:13:21.688Z,15.95
2023-01-13T06:15:49.070Z,21.77
2023-01-13T06:18:16.618Z,15.00
2023-01-13T06:20:43.930Z,20.20
2023-01-13T06:23:11.965Z,16.40
2023-01-13T06:26:03.400Z,14.38
2023-01-13T06:28:30.818Z,16.38
2023-01-13T06:31:01.037Z,18.15
2023-01-13T06:36:00.599Z,13.35
2023-01-13T06:38:29.468Z,22.95
2023-01-13T06:40:56.795Z,24.33
2023-01-13T06:43:24.109Z,19.20
2023-01-13T06:45:53.162Z,16.02
2023-01-13T06:48:27.819Z,18.33
2023-01-13T06:50:55.088Z,16.15
2023-01-13T06:53:22.477Z,24.45
2023-01-13T06:55:49.863Z,13.20
2023-01-13T06:58:17.458Z,21.08
2023-01-13T07:00:45.087Z,22.25
2023-01-13T07:03:14.347Z,22.20
2023-01-13T07:05:43.235Z,20.87
2023-01-13T07:08:11.018Z,20.15
2023-01-13T07:10:38.905Z,17.63
2023-01-13T07:13:25.216Z,19.25
2023-01-13T07:15:54.161Z,12.93
2023-01-13T07:18:21.538Z,17.98
2023-01-13T07:20:56.631Z,18.30
2023-01-13T07:23:25.386Z,22.35
2023-01-13T07:25:55.312Z,15.32
2023-01-13T07:28:22.981Z,15.07
2023-01-13T07:30:50.384Z,14.88
2023-01-13T07:33:18.653Z,17.55
2023-01-13T07:35:46.937Z,18.23
2023-01-13T07:38:14.855Z,21.92
2023-01-13T07:40:42.138Z,27.40
2023-01-13T07:43:31.048Z,22.42
2023-01-13T07:45:59.448Z,16.52
2023-01-13T07:48:27.371Z,19.58
2023-01-13T07:50:55.176Z,22.67
2023-01-13T07:53:25.167Z,18.52
2023-01-13T07:55:56.979Z,22.58
2023-01-13T07:58:25.668Z,15.98
2023-01-13T08:00:53.623Z,23.35
2023-01-13T08:03:21.525Z,16.98
2023-01-13T08:05:49.238Z,18.80
2023-01-13T08:08:17.070Z,20.08
2023-01-13T08:10:45.014Z,21.23
2023-01-13T08:13:18.371Z,19.40
2023-01-13T08:15:48.332Z,24.58
2023-01-13T08:18:17.757Z,22.10
2023-01-13T08:20:45.205Z,16.63
2023-01-13T08:23:12.739Z,16.73
2023-01-13T08:25:40.261Z,19.42
2023-01-13T08:28:15.065Z,19.70
2023-01-13T08:30:42.849Z,20.50
2023-01-13T08:33:12.535Z,17.75
2023-01-13T08:35:40.767Z,24.73
2023-01-13T08:38:08.989Z,16.15
2023-01-13T08:40:36.665Z,20.17
2023-01-13T08:43:03.921Z,17.67
2023-01-13T08:45:31.153Z,15.75
2023-01-13T08:47:58.407Z,18.95
2023-01-13T08:50:25.754Z,19.88
2023-01-13T08:52:53.192Z,17.80
2023-01-13T08:55:20.550Z,21.88
2023-01-13T08:57:47.881Z,17.45
2023-01-13T09:00:17.253Z,19.85
2023-01-13T09:02:44.832Z,18.88
2023-01-13T09:05:12.679Z,19.92
2023-01-13T09:07:39.959Z,13.25
2023-01-13T09:10:08.388Z,16.52
2023-01-13T09:12:54.869Z,15.43
2023-01-13T09:15:22.324Z,18.67
2023-01-13T09:17:49.605Z,20.60
2023-01-13T09:20:17.055Z,19.52
2023-01-13T09:22:44.366Z,16.30
2023-01-13T09:25:12.760Z,20.45
2023-01-13T09:27:40.045Z,20.77
2023-01-13T09:30:08.058Z,20.40
2023-01-13T09:32:35.524Z,20.17
2023-01-13T09:35:03.827Z,14.43
2023-01-13T09:37:40.485Z,17.83
2023-01-13T09:40:18.561Z,15.55
2023-01-13T09:43:11.604Z,18.17
2023-01-13T09:45:45.302Z,21.85
2023-01-13T09:48:32.725Z,17.40
2023-01-13T09:51:09.620Z,18.95
2023-01-13T09:53:39.970Z,13.77
2023-01-13T09:56:10.298Z,20.75
2023-01-13T09:58:37.953Z,15.52
2023-01-13T10:01:11.188Z,18.08
2023-01-13T10:03:38.801Z,20.95
2023-01-13T10:06:16.733Z,17.10
2023-01-13T10:08:45.649Z,17.05
2023-01-13T10:11:38.523Z,19.20
2023-01-13T10:14:20.755Z,16.75
2023-01-13T10:17:08.771Z,22.83
2023-01-13T10:19:44.944Z,10.52
2023-01-13T10:22:35.428Z,17.13
2023-01-13T10:25:21.123Z,15.85
2023-01-13T10:27:50.256Z,19.00
2023-01-13T10:30:17.753Z,16.77
2023-01-13T10:33:01.314Z,16.40
2023-01-13T10:35:55.604Z,18.38
2023-01-13T10:38:29.020Z,15.80
2023-01-13T10:41:01.837Z,15.13
2023-01-13T10:43:30.574Z,15.52
2023-01-13T10:46:06.857Z,19.13
2023-01-13T10:48:41.373Z,12.70
2023-01-13T10:51:14.534Z,17.40
2023-01-13T10:53:53.810Z,11.20
2023-01-13T10:56:22.449Z,11.13
2023-01-13T10:58:49.798Z,10.98
2023-01-13T11:01:26.337Z,14.65
2023-01-13T11:03:54.982Z,15.18
2023-01-13T11:06:27.317Z,10.75
2023-01-13T11:08:58.167Z,14.70
2023-01-13T11:11:39.191Z,14.13
2023-01-13T11:14:33.893Z,15.32
2023-01-13T11:17:22.768Z,16.75
2023-01-13T11:20:14.907Z,15.93
2023-01-13T11:22:55.602Z,15.48
2023-01-13T11:25:42.134Z,13.85
2023-01-13T11:28:16.731Z,16.05
2023-01-13T11:30:52.707Z,12.63
2023-01-13T11:33:30.573Z,20.67
2023-01-13T11:36:21.215Z,23.40
2023-01-13T11:38:54.827Z,13.38
2023-01-13T11:41:40.478Z,15.75
2023-01-13T11:44:22.610Z,20.38
2023-01-13T11:46:53.656Z,25.67
2023-01-13T11:49:27.546Z,21.10
2023-01-13T11:51:59.050Z,18.30
2023-01-13T11:54:50.596Z,39.10
2023-01-13T11:57:33.045Z,30.50
2023-01-13T12:00:18.626Z,21.90
2023-01-13T12:03:01.324Z,28.80
2023-01-13T12:05:37.274Z,19.05
2023-01-13T12:08:43.135Z,25.02
2023-01-13T12:11:24.835Z,20.35
2023-01-13T12:14:13.477Z,21.00
2023-01-13T12:16:48.999Z,29.35
2023-01-13T12:19:25.587Z,28.20
2023-01-13T12:22:09.316Z,22.08
2023-01-13T12:24:44.027Z,19.80
2023-01-13T12:27:29.526Z,18.92
2023-01-13T12:29:59.876Z,16.88
2023-01-13T12:32:38.245Z,20.63
2023-01-13T12:35:24.347Z,19.85
2023-01-13T12:37:59.642Z,17.05
2023-01-13T12:40:47.051Z,19.83
2023-01-13T12:43:40.824Z,22.73
2023-01-13T12:46:23.295Z,23.33
2023-01-13T12:48:59.943Z,18.70
2023-01-13T12:51:29.203Z,18.50
2023-01-13T12:53:56.632Z,17.93
2023-01-13T12:56:40.076Z,17.77
2023-01-13T12:59:19.407Z,17.20
2023-01-13T13:01:48.677Z,17.03
2023-01-13T13:04:42.647Z,13.73
2023-01-13T13:07:16.599Z,17.95
2023-01-13T13:09:47.764Z,16.63
2023-01-13T13:12:49.037Z,44.17
2023-01-13T13:15:20.534Z,37.03
2023-01-13T13:18:00.258Z,25.20
2023-01-13T13:20:56.385Z,22.10
2023-01-13T13:23:48.786Z,23.55
2023-01-13T13:26:22.209Z,20.80
2023-01-13T13:29:11.221Z,21.63
2023-01-13T13:31:47.218Z,22.63
2023-01-13T13:34:39.401Z,19.90
2023-01-13T13:38:00.238Z,22.75
2023-01-13T13:40:51.332Z,18.88
2023-01-13T13:43:38.722Z,21.05
2023-01-13T13:46:47.106Z,16.88
2023-01-13T13:49:16.825Z,16.60
2023-01-13T13:51:52.919Z,18.92
2023-01-13T13:54:22.124Z,18.00
2023-01-13T13:56:50.441Z,18.10
2023-01-13T13:59:25.632Z,14.73
2023-01-13T14:02:03.760Z,19.20
2023-01-13T14:04:33.695Z,19.60
2023-01-13T14:07:18.484Z,18.30
2023-01-13T14:09:47.738Z,18.67
2023-01-13T14:12:23.361Z,23.98
2023-01-13T14:14:51.416Z,17.85
2023-01-13T14:17:27.017Z,15.75
2023-01-13T14:20:17.367Z,15.88
2023-01-13T14:22:49.392Z,19.92
2023-01-13T14:25:39.826Z,18.05
2023-01-13T14:28:13.228Z,15.25
2023-01-13T14:30:42.019Z,21.02
2023-01-13T14:33:17.508Z,17.67
2023-01-13T14:36:26.802Z,14.50
2023-01-13T14:39:03.029Z,22.10
2023-01-13T14:41:53.390Z,26.77
2023-01-13T14:46:48.519Z,16.52
2023-01-13T14:49:22.452Z,18.60
2023-01-13T14:51:50.127Z,15.88
2023-01-13T14:54:49.758Z,26.63
2023-01-13T14:57:27.492Z,21.52
2023-01-13T15:00:16.984Z,20.25
2023-01-13T15:02:48.600Z,20.25
2023-01-13T15:05:19.526Z,18.05
2023-01-13T15:07:56.461Z,14.35
2023-01-13T15:10:26.755Z,14.93
2023-01-13T15:12:56.377Z,13.95
2023-01-13T15:15:28.008Z,14.20
2023-01-13T15:17:55.303Z,14.55
2023-01-13T15:20:24.376Z,17.52
2023-01-13T15:22:52.326Z,7.90
2023-01-13T15:25:20.328Z,10.60
2023-01-13T15:27:50.674Z,11.55
2023-01-13T15:30:26.320Z,10.55
2023-01-13T15:32:55.185Z,13.35
2023-01-13T15:35:23.943Z,13.73
2023-01-13T15:37:51.545Z,17.30
2023-01-13T15:40:26.597Z,14.25
2023-01-13T15:43:12.450Z,11.57
2023-01-13T15:45:59.308Z,15.93
2023-01-13T15:48:28.125Z,13.43
2023-01-13T15:50:55.477Z,13.73
2023-01-13T15:53:23.025Z,13.18
2023-01-13T15:55:52.618Z,14.85
2023-01-13T15:58:21.517Z,18.33
2023-01-13T16:00:48.811Z,14.05
2023-01-13T16:03:16.783Z,17.25
2023-01-13T16:05:44.918Z,16.75
2023-01-13T16:08:20.465Z,14.90
2023-01-13T16:10:48.480Z,15.98
2023-01-13T16:13:16.892Z,18.95
2023-01-13T16:15:53.312Z,16.52
2023-01-13T16:18:24.349Z,17.45
2023-01-13T16:20:53.453Z,17.00
2023-01-13T16:23:22.076Z,17.27
2023-01-13T16:25:49.916Z,15.63
2023-01-13T16:28:26.139Z,15.57
2023-01-13T16:30:53.898Z,18.30
2023-01-13T16:33:21.122Z,16.42
2023-01-13T16:36:10.674Z,15.70
2023-01-13T16:38:36.985Z,21.08
2023-01-13T16:41:04.358Z,16.75
2023-01-13T16:43:32.263Z,18.98
2023-01-13T16:45:59.723Z,16.10
2023-01-13T16:48:27.103Z,23.98
2023-01-13T16:50:54.574Z,14.18
2023-01-13T16:53:21.922Z,18.85
2023-01-13T16:55:49.188Z,17.05
2023-01-13T16:58:18.444Z,17.55
2023-01-13T17:00:49.071Z,16.70
2023-01-13T17:03:16.677Z,13.48
2023-01-13T17:05:47.535Z,12.80
2023-01-13T17:08:17.781Z,14.15
2023-01-13T17:10:45.617Z,10.68
2023-01-13T17:13:16.789Z,13.70
2023-01-13T17:15:45.748Z,20.13
2023-01-13T17:18:13.743Z,13.60
2023-01-13T17:20:41.264Z,13.10
2023-01-13T17:23:08.595Z,21.52
2023-01-13T17:25:35.916Z,16.92
2023-01-13T17:28:03.393Z,13.50
2023-01-13T17:30:30.671Z,19.08
2023-01-13T17:32:58.082Z,16.65
2023-01-13T17:35:25.521Z,13.68
2023-01-13T17:37:53.793Z,20.83
2023-01-13T17:40:21.268Z,17.17
2023-01-13T17:42:48.584Z,18.88
2023-01-13T17:45:16.329Z,14.90
2023-01-13T17:47:43.648Z,24.33
2023-01-13T17:50:11.138Z,16.35
2023-01-13T17:52:38.565Z,15.65
2023-01-13T17:55:06.169Z,20.70
2023-01-13T17:57:34.977Z,14.88
2023-01-13T18:00:03.172Z,24.48
2023-01-13T18:02:39.527Z,18.42
2023-01-13T18:05:07.058Z,18.25
2023-01-13T18:07:34.260Z,24.25
2023-01-13T18:10:01.517Z,15.75
2023-01-13T18:12:28.945Z,21.85
2023-01-13T18:14:56.487Z,20.05
2023-01-13T18:17:23.861Z,27.60
2023-01-13T18:20:10.011Z,23.65
2023-01-13T18:23:06.673Z,19.95
2023-01-13T18:25:53.064Z,22.35
2023-01-13T18:28:20.470Z,17.73
2023-01-13T18:30:48.200Z,23.33
2023-01-13T18:33:15.536Z,19.55
2023-01-13T18:35:42.900Z,21.58
2023-01-13T18:38:14.616Z,25.20
2023-01-13T18:40:44.178Z,22.48
2023-01-13T18:43:11.419Z,21.00
2023-01-13T18:45:38.776Z,25.15
2023-01-13T18:48:06.713Z,23.20
2023-01-13T18:50:37.078Z,19.20
2023-01-13T18:53:04.491Z,26.05
2023-01-13T18:55:31.814Z,22.10
2023-01-13T18:57:59.325Z,21.00
2023-01-13T19:00:27.447Z,22.02
2023-01-13T19:05:35.447Z,22.75
2023-01-13T19:08:03.513Z,25.15
2023-01-13T19:10:32.569Z,27.58
2023-01-13T19:13:01.454Z,22.83
2023-01-13T19:15:28.871Z,26.38
2023-01-13T19:17:56.492Z,24.88
2023-01-13T19:20:24.207Z,22.52
2023-01-13T19:22:54.296Z,29.95
2023-01-13T19:27:48.769Z,24.52
2023-01-13T19:30:17.335Z,24.58
2023-01-13T19:32:44.683Z,23.08
2023-01-13T19:35:13.193Z,27.77
2023-01-13T19:37:40.881Z,24.17
2023-01-13T19:40:09.910Z,22.92
2023-01-13T19:42:55.811Z,42.72
2023-01-13T19:45:34.987Z,30.02
2023-01-13T19:48:04.698Z,22.75
2023-01-13T19:50:35.724Z,21.75
2023-01-13T19:53:03.103Z,26.45
2023-01-13T19:55:31.857Z,35.95
2023-01-13T19:57:59.189Z,34.83
2023-01-13T20:00:26.712Z,45.13
2023-01-13T20:02:56.742Z,37.40
2023-01-13T20:07:54.113Z,23.98
2023-01-13T20:10:22.551Z,26.40
2023-01-13T20:12:50.040Z,28.50
2023-01-13T20:15:17.349Z,21.08
2023-01-13T20:17:46.728Z,35.83
2023-01-13T20:20:15.807Z,39.25
2023-01-13T20:22:43.246Z,25.10
2023-01-13T20:25:11.469Z,21.40
2023-01-13T20:27:38.891Z,23.95
2023-01-13T20:30:09.791Z,36.20
2023-01-13T20:32:37.287Z,35.33
2023-01-13T20:35:04.971Z,29.48
2023-01-13T20:37:32.336Z,32.20
2023-01-13T20:40:01.843Z,26.23
2023-01-13T20:42:29.276Z,28.83
2023-01-13T20:44:57.115Z,27.23
2023-01-13T20:47:25.404Z,24.80
2023-01-13T20:49:53.526Z,32.50
2023-01-13T20:52:21.057Z,22.75
2023-01-13T20:54:48.530Z,27.98
2023-01-13T20:57:15.952Z,23.65
2023-01-13T20:59:43.247Z,23.38
2023-01-13T21:02:13.207Z,28.25
2023-01-13T21:04:40.890Z,26.10
2023-01-13T21:07:08.371Z,28.70
2023-01-13T21:09:36.531Z,23.48
2023-01-13T21:12:23.347Z,30.65
2023-01-13T21:15:09.410Z,34.13
2023-01-13T21:17:56.040Z,24.33
2023-01-13T21:20:23.403Z,31.27
2023-01-13T21:22:51.082Z,24.10
2023-01-13T21:25:19.088Z,30.55
2023-01-13T21:27:46.588Z,31.08
2023-01-13T21:30:15.791Z,31.75
2023-01-13T21:32:44.467Z,35.10
2023-01-13T21:35:12.948Z,32.35
2023-01-13T21:37:41.938Z,40.72
2023-01-13T21:40:12.132Z,24.83
2023-01-13T21:45:44.114Z,27.98
2023-01-13T21:48:11.536Z,27.50
2023-01-13T21:50:39.481Z,30.75
2023-01-13T21:53:07.971Z,26.45
2023-01-13T21:55:36.857Z,29.92
2023-01-13T21:58:14.308Z,29.05
2023-01-13T22:00:43.294Z,23.58
2023-01-13T22:03:14.581Z,33.13
2023-01-13T22:05:42.160Z,32.05
2023-01-13T22:08:12.389Z,28.35
2023-01-13T22:10:57.292Z,30.05
2023-01-13T22:13:44.148Z,30.20
2023-01-13T22:16:12.030Z,23.60
2023-01-13T22:18:39.363Z,30.75
2023-01-13T22:21:06.965Z,30.42
2023-01-13T22:23:34.254Z,31.05
2023-01-13T22:26:05.859Z,28.95
2023-01-13T22:28:43.328Z,26.55
2023-01-13T22:31:15.266Z,23.73
2023-01-13T22:33:43.667Z,37.92
2023-01-13T22:36:10.892Z,27.00
2023-01-13T22:38:38.199Z,29.35
2023-01-13T22:41:07.451Z,30.25
2023-01-13T22:43:35.445Z,23.63
2023-01-13T22:46:07.987Z,29.23
2023-01-13T22:48:35.694Z,31.92
2023-01-13T22:51:07.401Z,28.27
2023-01-13T22:53:35.818Z,28.15
2023-01-13T22:56:03.870Z,25.10
2023-01-13T22:58:31.289Z,29.88
2023-01-13T23:01:08.972Z,26.90
2023-01-13T23:03:36.635Z,27.90
2023-01-13T23:06:04.851Z,21.73
2023-01-13T23:08:35.627Z,29.05
2023-01-13T23:11:04.702Z,25.48
2023-01-13T23:13:32.345Z,31.52
2023-01-13T23:16:06.626Z,25.73
2023-01-13T23:18:34.036Z,32.83
2023-01-13T23:21:06.995Z,26.60
2023-01-13T23:23:34.593Z,26.35
2023-01-13T23:26:02.505Z,23.63
2023-01-13T23:28:30.431Z,24.10
2023-01-13T23:30:57.805Z,37.35
2023-01-13T23:33:25.592Z,24.90
2023-01-13T23:36:00.832Z,26.92
2023-01-13T23:38:28.788Z,23.92
2023-01-13T23:40:56.325Z,21.35
2023-01-13T23:43:23.673Z,18.70
2023-01-13T23:45:51.100Z,20.38
2023-01-13T23:48:18.811Z,24.27
2023-01-13T23:50:57.883Z,24.67
2023-01-13T23:53:31.022Z,27.23
2023-01-13T23:55:58.688Z,19.63
2023-01-13T23:58:26.145Z,16.60
